sensor_id;sensor_type;location;lat;lon;timestamp;P1;durP1;ratioP1;P2;durP2;ratioP2
22250;SDS011;59348;52.158;5.588;2023-04-01T00:01:04;13.35;;;11.30;;
22250;SDS011;59348;52.158;5.588;2023-04-01T00:03:33;17.17;;;12.57;;
22250;SDS011;59348;52.158;5.588;2023-04-01T00:06:01;19.05;;;12.50;;
22250;SDS011;59348;52.158;5.588;2023-04-01T00:08:29;17.20;;;12.70;;
22250;SDS011;59348;52.158;5.588;2023-04-01T00:10:57;18.27;;;13.07;;
22250;SDS011;59348;52.158;5.588;2023-04-01T00:13:25;19.50;;;13.60;;
22250;SDS011;59348;52.158;5.588;2023-04-01T00:15:52;19.10;;;13.38;;
22250;SDS011;59348;52.158;5.588;2023-04-01T00:18:20;20.50;;;13.88;;
22250;SDS011;59348;52.158;5.588;2023-04-01T00:20:49;20.67;;;14.18;;
22250;SDS011;59348;52.158;5.588;2023-04-01T00:23:17;20.45;;;14.98;;
22250;SDS011;59348;52.158;5.588;2023-04-01T00:25:44;24.70;;;15.32;;
22250;SDS011;59348;52.158;5.588;2023-04-01T00:28:13;23.08;;;16.13;;
22250;SDS011;59348;52.158;5.588;2023-04-01T00:30:40;24.70;;;17.63;;
22250;SDS011;59348;52.158;5.588;2023-04-01T00:33:08;25.50;;;17.23;;
22250;SDS011;59348;52.158;5.588;2023-04-01T00:35:35;25.00;;;17.00;;
22250;SDS011;59348;52.158;5.588;2023-04-01T00:38:04;25.25;;;17.30;;
22250;SDS011;59348;52.158;5.588;2023-04-01T00:40:32;25.58;;;17.85;;
22250;SDS011;59348;52.158;5.588;2023-04-01T00:43:00;25.42;;;17.52;;
22250;SDS011;59348;52.158;5.588;2023-04-01T00:45:29;28.60;;;18.23;;
22250;SDS011;59348;52.158;5.588;2023-04-01T00:47:58;27.52;;;17.30;;
22250;SDS011;59348;52.158;5.588;2023-04-01T00:50:26;30.77;;;18.48;;
22250;SDS011;59348;52.158;5.588;2023-04-01T00:52:54;29.70;;;19.10;;
22250;SDS011;59348;52.158;5.588;2023-04-01T00:55:23;29.90;;;18.52;;
22250;SDS011;59348;52.158;5.588;2023-04-01T00:57:51;27.30;;;19.17;;
22250;SDS011;59348;52.158;5.588;2023-04-01T01:00:21;27.90;;;19.40;;
22250;SDS011;59348;52.158;5.588;2023-04-01T01:02:48;35.35;;;20.67;;
22250;SDS011;59348;52.158;5.588;2023-04-01T01:05:17;31.95;;;20.05;;
22250;SDS011;59348;52.158;5.588;2023-04-01T01:07:47;37.25;;;21.30;;
22250;SDS011;59348;52.158;5.588;2023-04-01T01:10:19;33.97;;;20.70;;
22250;SDS011;59348;52.158;5.588;2023-04-01T01:12:50;44.05;;;23.45;;
22250;SDS011;59348;52.158;5.588;2023-04-01T01:15:20;43.70;;;23.52;;
22250;SDS011;59348;52.158;5.588;2023-04-01T01:17:50;38.85;;;23.30;;
22250;SDS011;59348;52.158;5.588;2023-04-01T01:23:10;39.42;;;21.45;;
22250;SDS011;59348;52.158;5.588;2023-04-01T01:25:43;40.80;;;21.92;;
22250;SDS011;59348;52.158;5.588;2023-04-01T01:28:22;38.60;;;21.50;;
22250;SDS011;59348;52.158;5.588;2023-04-01T01:30:54;43.28;;;21.27;;
22250;SDS011;59348;52.158;5.588;2023-04-01T01:33:34;40.38;;;21.25;;
22250;SDS011;59348;52.158;5.588;2023-04-01T01:36:05;38.90;;;21.52;;
22250;SDS011;59348;52.158;5.588;2023-04-01T01:38:34;39.92;;;22.50;;
22250;SDS011;59348;52.158;5.588;2023-04-01T01:41:02;40.22;;;22.40;;
22250;SDS011;59348;52.158;5.588;2023-04-01T01:43:32;44.85;;;24.42;;
22250;SDS011;59348;52.158;5.588;2023-04-01T01:46:00;38.90;;;23.48;;
22250;SDS011;59348;52.158;5.588;2023-04-01T01:48:29;48.42;;;24.55;;
22250;SDS011;59348;52.158;5.588;2023-04-01T01:50:57;47.28;;;24.50;;
22250;SDS011;59348;52.158;5.588;2023-04-01T01:53:26;38.90;;;23.70;;
22250;SDS011;59348;52.158;5.588;2023-04-01T01:55:54;43.33;;;23.48;;
22250;SDS011;59348;52.158;5.588;2023-04-01T01:58:22;37.60;;;22.58;;
22250;SDS011;59348;52.158;5.588;2023-04-01T02:00:52;34.95;;;20.75;;
22250;SDS011;59348;52.158;5.588;2023-04-01T02:03:20;32.63;;;19.55;;
22250;SDS011;59348;52.158;5.588;2023-04-01T02:05:49;33.22;;;19.15;;
22250;SDS011;59348;52.158;5.588;2023-04-01T02:08:18;33.50;;;19.65;;
22250;SDS011;59348;52.158;5.588;2023-04-01T02:10:51;32.83;;;18.73;;
22250;SDS011;59348;52.158;5.588;2023-04-01T02:13:21;30.55;;;18.80;;
22250;SDS011;59348;52.158;5.588;2023-04-01T02:15:51;31.90;;;18.70;;
22250;SDS011;59348;52.158;5.588;2023-04-01T02:18:20;30.00;;;17.10;;
22250;SDS011;59348;52.158;5.588;2023-04-01T02:20:48;23.33;;;14.95;;
22250;SDS011;59348;52.158;5.588;2023-04-01T02:23:16;21.08;;;12.38;;
22250;SDS011;59348;52.158;5.588;2023-04-01T02:25:43;21.88;;;12.13;;
22250;SDS011;59348;52.158;5.588;2023-04-01T02:28:13;18.90;;;11.55;;
22250;SDS011;59348;52.158;5.588;2023-04-01T02:30:44;21.80;;;13.00;;
22250;SDS011;59348;52.158;5.588;2023-04-01T02:33:12;20.75;;;13.48;;
22250;SDS011;59348;52.158;5.588;2023-04-01T02:35:39;22.58;;;14.38;;
22250;SDS011;59348;52.158;5.588;2023-04-01T02:38:07;23.20;;;15.52;;
22250;SDS011;59348;52.158;5.588;2023-04-01T02:40:42;23.67;;;14.93;;
22250;SDS011;59348;52.158;5.588;2023-04-01T02:43:10;19.30;;;15.25;;
22250;SDS011;59348;52.158;5.588;2023-04-01T02:45:38;21.58;;;14.80;;
22250;SDS011;59348;52.158;5.588;2023-04-01T02:48:06;18.52;;;12.27;;
22250;SDS011;59348;52.158;5.588;2023-04-01T02:50:33;19.58;;;12.40;;
22250;SDS011;59348;52.158;5.588;2023-04-01T02:53:00;15.85;;;12.00;;
22250;SDS011;59348;52.158;5.588;2023-04-01T02:55:28;17.30;;;11.63;;
22250;SDS011;59348;52.158;5.588;2023-04-01T02:57:56;16.83;;;11.50;;
22250;SDS011;59348;52.158;5.588;2023-04-01T03:00:23;17.48;;;11.20;;
22250;SDS011;59348;52.158;5.588;2023-04-01T03:02:52;15.77;;;10.93;;
22250;SDS011;59348;52.158;5.588;2023-04-01T03:05:19;16.77;;;11.77;;
22250;SDS011;59348;52.158;5.588;2023-04-01T03:07:47;16.48;;;11.13;;
22250;SDS011;59348;52.158;5.588;2023-04-01T03:10:14;19.92;;;11.50;;
22250;SDS011;59348;52.158;5.588;2023-04-01T03:12:41;17.30;;;12.30;;
22250;SDS011;59348;52.158;5.588;2023-04-01T03:15:09;20.33;;;12.10;;
22250;SDS011;59348;52.158;5.588;2023-04-01T03:17:38;17.75;;;12.95;;
22250;SDS011;59348;52.158;5.588;2023-04-01T03:20:07;17.65;;;11.65;;
22250;SDS011;59348;52.158;5.588;2023-04-01T03:22:36;17.20;;;12.13;;
22250;SDS011;59348;52.158;5.588;2023-04-01T03:25:03;17.35;;;12.68;;
22250;SDS011;59348;52.158;5.588;2023-04-01T03:27:32;15.18;;;12.07;;
22250;SDS011;59348;52.158;5.588;2023-04-01T03:30:00;17.33;;;12.07;;
22250;SDS011;59348;52.158;5.588;2023-04-01T03:32:27;16.52;;;11.88;;
22250;SDS011;59348;52.158;5.588;2023-04-01T03:34:55;13.75;;;11.40;;
22250;SDS011;59348;52.158;5.588;2023-04-01T03:37:24;16.75;;;11.30;;
22250;SDS011;59348;52.158;5.588;2023-04-01T03:39:51;15.52;;;11.38;;
22250;SDS011;59348;52.158;5.588;2023-04-01T03:42:18;13.88;;;10.73;;
22250;SDS011;59348;52.158;5.588;2023-04-01T03:44:46;14.98;;;10.93;;
22250;SDS011;59348;52.158;5.588;2023-04-01T03:47:13;13.35;;;10.68;;
22250;SDS011;59348;52.158;5.588;2023-04-01T03:49:40;11.52;;;10.25;;
22250;SDS011;59348;52.158;5.588;2023-04-01T03:52:14;11.75;;;9.30;;
22250;SDS011;59348;52.158;5.588;2023-04-01T03:54:43;10.68;;;9.57;;
22250;SDS011;59348;52.158;5.588;2023-04-01T03:57:10;12.18;;;9.77;;
22250;SDS011;59348;52.158;5.588;2023-04-01T03:59:37;11.90;;;9.90;;
22250;SDS011;59348;52.158;5.588;2023-04-01T04:02:05;12.52;;;9.35;;
22250;SDS011;59348;52.158;5.588;2023-04-01T04:04:32;14.90;;;11.00;;
22250;SDS011;59348;52.158;5.588;2023-04-01T04:06:59;13.68;;;10.63;;
22250;SDS011;59348;52.158;5.588;2023-04-01T04:09:26;13.10;;;10.23;;
22250;SDS011;59348;52.158;5.588;2023-04-01T04:11:55;14.65;;;11.63;;
22250;SDS011;59348;52.158;5.588;2023-04-01T04:14:23;17.77;;;12.25;;
22250;SDS011;59348;52.158;5.588;2023-04-01T04:16:50;15.50;;;12.10;;
22250;SDS011;59348;52.158;5.588;2023-04-01T04:19:17;15.15;;;12.38;;
22250;SDS011;59348;52.158;5.588;2023-04-01T04:21:45;18.70;;;13.10;;
22250;SDS011;59348;52.158;5.588;2023-04-01T04:24:12;20.55;;;13.73;;
22250;SDS011;59348;52.158;5.588;2023-04-01T04:26:39;20.63;;;14.85;;
22250;SDS011;59348;52.158;5.588;2023-04-01T04:29:08;25.40;;;16.90;;
22250;SDS011;59348;52.158;5.588;2023-04-01T04:31:35;24.48;;;17.35;;
22250;SDS011;59348;52.158;5.588;2023-04-01T04:34:02;29.88;;;17.73;;
22250;SDS011;59348;52.158;5.588;2023-04-01T04:36:30;32.13;;;19.42;;
22250;SDS011;59348;52.158;5.588;2023-04-01T04:38:57;36.97;;;20.67;;
22250;SDS011;59348;52.158;5.588;2023-04-01T04:41:27;36.03;;;20.50;;
22250;SDS011;59348;52.158;5.588;2023-04-01T04:43:54;37.78;;;21.55;;
22250;SDS011;59348;52.158;5.588;2023-04-01T04:46:25;42.63;;;21.60;;
22250;SDS011;59348;52.158;5.588;2023-04-01T04:48:52;37.47;;;20.50;;
22250;SDS011;59348;52.158;5.588;2023-04-01T04:51:19;41.15;;;20.10;;
22250;SDS011;59348;52.158;5.588;2023-04-01T04:53:47;46.00;;;20.80;;
22250;SDS011;59348;52.158;5.588;2023-04-01T04:56:17;38.05;;;20.83;;
22250;SDS011;59348;52.158;5.588;2023-04-01T04:58:44;41.55;;;20.73;;
22250;SDS011;59348;52.158;5.588;2023-04-01T05:01:12;38.10;;;20.30;;
22250;SDS011;59348;52.158;5.588;2023-04-01T05:03:41;38.30;;;21.05;;
22250;SDS011;59348;52.158;5.588;2023-04-01T05:06:09;41.55;;;21.35;;
22250;SDS011;59348;52.158;5.588;2023-04-01T05:08:37;39.33;;;19.80;;
22250;SDS011;59348;52.158;5.588;2023-04-01T05:11:06;40.13;;;20.55;;
22250;SDS011;59348;52.158;5.588;2023-04-01T05:13:34;42.13;;;21.30;;
22250;SDS011;59348;52.158;5.588;2023-04-01T05:16:02;40.40;;;20.30;;
22250;SDS011;59348;52.158;5.588;2023-04-01T05:18:29;41.80;;;20.17;;
22250;SDS011;59348;52.158;5.588;2023-04-01T05:20:58;43.67;;;19.77;;
22250;SDS011;59348;52.158;5.588;2023-04-01T05:23:25;35.53;;;19.88;;
22250;SDS011;59348;52.158;5.588;2023-04-01T05:25:54;37.67;;;19.40;;
22250;SDS011;59348;52.158;5.588;2023-04-01T05:28:22;37.85;;;19.25;;
22250;SDS011;59348;52.158;5.588;2023-04-01T05:30:49;39.72;;;18.88;;
22250;SDS011;59348;52.158;5.588;2023-04-01T05:33:16;39.28;;;19.30;;
22250;SDS011;59348;52.158;5.588;2023-04-01T05:35:44;41.75;;;19.33;;
22250;SDS011;59348;52.158;5.588;2023-04-01T05:38:12;38.60;;;17.75;;
22250;SDS011;59348;52.158;5.588;2023-04-01T05:40:39;37.97;;;17.65;;
22250;SDS011;59348;52.158;5.588;2023-04-01T05:43:07;40.08;;;18.15;;
22250;SDS011;59348;52.158;5.588;2023-04-01T05:45:34;41.03;;;17.40;;
22250;SDS011;59348;52.158;5.588;2023-04-01T05:48:01;38.90;;;17.90;;
22250;SDS011;59348;52.158;5.588;2023-04-01T05:50:29;34.85;;;16.63;;
22250;SDS011;59348;52.158;5.588;2023-04-01T05:52:56;34.97;;;17.23;;
22250;SDS011;59348;52.158;5.588;2023-04-01T05:55:37;30.02;;;15.93;;
22250;SDS011;59348;52.158;5.588;2023-04-01T05:58:07;31.50;;;15.52;;
22250;SDS011;59348;52.158;5.588;2023-04-01T06:00:35;24.75;;;13.40;;
22250;SDS011;59348;52.158;5.588;2023-04-01T06:03:02;22.58;;;12.52;;
22250;SDS011;59348;52.158;5.588;2023-04-01T06:05:30;24.45;;;12.57;;
22250;SDS011;59348;52.158;5.588;2023-04-01T06:07:58;21.15;;;11.57;;
22250;SDS011;59348;52.158;5.588;2023-04-01T06:10:31;19.02;;;9.95;;
22250;SDS011;59348;52.158;5.588;2023-04-01T06:13:05;14.18;;;8.32;;
22250;SDS011;59348;52.158;5.588;2023-04-01T06:15:35;12.30;;;7.93;;
22250;SDS011;59348;52.158;5.588;2023-04-01T06:18:10;12.98;;;7.43;;
22250;SDS011;59348;52.158;5.588;2023-04-01T06:20:42;13.93;;;7.40;;
22250;SDS011;59348;52.158;5.588;2023-04-01T06:25:59;11.15;;;7.55;;
22250;SDS011;59348;52.158;5.588;2023-04-01T06:28:37;12.45;;;7.93;;
22250;SDS011;59348;52.158;5.588;2023-04-01T06:31:10;11.43;;;7.53;;
22250;SDS011;59348;52.158;5.588;2023-04-01T06:33:42;11.52;;;7.78;;
22250;SDS011;59348;52.158;5.588;2023-04-01T06:36:15;10.35;;;7.38;;
22250;SDS011;59348;52.158;5.588;2023-04-01T06:38:49;8.65;;;6.55;;
22250;SDS011;59348;52.158;5.588;2023-04-01T06:41:39;10.77;;;6.97;;
22250;SDS011;59348;52.158;5.588;2023-04-01T06:44:20;10.48;;;6.60;;
22250;SDS011;59348;52.158;5.588;2023-04-01T06:46:55;12.50;;;7.00;;
22250;SDS011;59348;52.158;5.588;2023-04-01T06:49:28;11.57;;;7.15;;
22250;SDS011;59348;52.158;5.588;2023-04-01T06:51:58;11.73;;;7.03;;
22250;SDS011;59348;52.158;5.588;2023-04-01T06:54:28;10.85;;;7.10;;
22250;SDS011;59348;52.158;5.588;2023-04-01T06:56:58;11.30;;;6.90;;
22250;SDS011;59348;52.158;5.588;2023-04-01T06:59:28;10.40;;;5.95;;
22250;SDS011;59348;52.158;5.588;2023-04-01T07:01:57;9.95;;;5.97;;
22250;SDS011;59348;52.158;5.588;2023-04-01T07:04:27;8.68;;;5.50;;
22250;SDS011;59348;52.158;5.588;2023-04-01T07:06:56;9.10;;;5.68;;
22250;SDS011;59348;52.158;5.588;2023-04-01T07:09:25;8.73;;;5.32;;
22250;SDS011;59348;52.158;5.588;2023-04-01T07:11:53;7.75;;;5.25;;
22250;SDS011;59348;52.158;5.588;2023-04-01T07:14:24;6.85;;;4.43;;
22250;SDS011;59348;52.158;5.588;2023-04-01T07:16:54;6.68;;;4.25;;
22250;SDS011;59348;52.158;5.588;2023-04-01T07:19:24;5.38;;;3.42;;
22250;SDS011;59348;52.158;5.588;2023-04-01T07:21:54;4.72;;;3.40;;
22250;SDS011;59348;52.158;5.588;2023-04-01T07:24:23;4.10;;;2.90;;
22250;SDS011;59348;52.158;5.588;2023-04-01T07:26:52;3.60;;;2.20;;
22250;SDS011;59348;52.158;5.588;2023-04-01T07:29:20;4.68;;;2.00;;
22250;SDS011;59348;52.158;5.588;2023-04-01T07:31:55;2.58;;;2.10;;
22250;SDS011;59348;52.158;5.588;2023-04-01T07:34:25;2.30;;;2.10;;
22250;SDS011;59348;52.158;5.588;2023-04-01T07:36:53;3.35;;;2.40;;
22250;SDS011;59348;52.158;5.588;2023-04-01T07:39:25;4.78;;;2.80;;
22250;SDS011;59348;52.158;5.588;2023-04-01T07:41:56;5.10;;;2.63;;
22250;SDS011;59348;52.158;5.588;2023-04-01T07:44:28;4.78;;;3.13;;
22250;SDS011;59348;52.158;5.588;2023-04-01T07:47:01;4.45;;;3.38;;
22250;SDS011;59348;52.158;5.588;2023-04-01T07:49:35;6.18;;;3.50;;
22250;SDS011;59348;52.158;5.588;2023-04-01T07:52:06;4.30;;;3.08;;
22250;SDS011;59348;52.158;5.588;2023-04-01T07:54:37;5.25;;;3.85;;
22250;SDS011;59348;52.158;5.588;2023-04-01T07:57:06;4.53;;;3.85;;
22250;SDS011;59348;52.158;5.588;2023-04-01T07:59:38;5.15;;;3.95;;
22250;SDS011;59348;52.158;5.588;2023-04-01T08:02:10;4.57;;;3.72;;
22250;SDS011;59348;52.158;5.588;2023-04-01T08:04:45;6.05;;;3.90;;
22250;SDS011;59348;52.158;5.588;2023-04-01T08:07:17;6.13;;;4.40;;
22250;SDS011;59348;52.158;5.588;2023-04-01T08:09:47;7.88;;;4.00;;
22250;SDS011;59348;52.158;5.588;2023-04-01T08:12:21;5.82;;;4.22;;
22250;SDS011;59348;52.158;5.588;2023-04-01T08:14:57;5.20;;;3.55;;
22250;SDS011;59348;52.158;5.588;2023-04-01T08:17:38;7.18;;;4.03;;
22250;SDS011;59348;52.158;5.588;2023-04-01T08:20:14;4.97;;;3.83;;
22250;SDS011;59348;52.158;5.588;2023-04-01T08:22:45;4.85;;;3.60;;
22250;SDS011;59348;52.158;5.588;2023-04-01T08:25:16;5.22;;;3.53;;
22250;SDS011;59348;52.158;5.588;2023-04-01T08:27:45;5.65;;;3.75;;
22250;SDS011;59348;52.158;5.588;2023-04-01T08:30:18;4.22;;;3.80;;
22250;SDS011;59348;52.158;5.588;2023-04-01T08:32:47;5.70;;;3.65;;
22250;SDS011;59348;52.158;5.588;2023-04-01T08:35:19;4.97;;;3.50;;
22250;SDS011;59348;52.158;5.588;2023-04-01T08:37:48;5.13;;;3.45;;
22250;SDS011;59348;52.158;5.588;2023-04-01T08:40:25;5.97;;;3.45;;
22250;SDS011;59348;52.158;5.588;2023-04-01T08:43:00;5.15;;;3.50;;
22250;SDS011;59348;52.158;5.588;2023-04-01T08:45:38;5.70;;;3.83;;
22250;SDS011;59348;52.158;5.588;2023-04-01T08:48:13;5.25;;;3.72;;
22250;SDS011;59348;52.158;5.588;2023-04-01T08:50:55;6.63;;;4.15;;
22250;SDS011;59348;52.158;5.588;2023-04-01T09:00:49;7.18;;;4.80;;
22250;SDS011;59348;52.158;5.588;2023-04-01T09:07:32;7.47;;;5.75;;
22250;SDS011;59348;52.158;5.588;2023-04-01T09:10:08;8.27;;;5.90;;
22250;SDS011;59348;52.158;5.588;2023-04-01T09:12:48;8.32;;;5.95;;
22250;SDS011;59348;52.158;5.588;2023-04-01T09:15:26;8.43;;;7.15;;
22250;SDS011;59348;52.158;5.588;2023-04-01T09:18:04;8.52;;;7.40;;
22250;SDS011;59348;52.158;5.588;2023-04-01T09:20:42;9.57;;;7.65;;
22250;SDS011;59348;52.158;5.588;2023-04-01T09:23:20;9.98;;;8.90;;
22250;SDS011;59348;52.158;5.588;2023-04-01T09:25:57;9.70;;;8.43;;
22250;SDS011;59348;52.158;5.588;2023-04-01T09:28:27;8.98;;;8.07;;
22250;SDS011;59348;52.158;5.588;2023-04-01T09:31:00;9.55;;;8.57;;
22250;SDS011;59348;52.158;5.588;2023-04-01T09:33:40;11.10;;;8.07;;
22250;SDS011;59348;52.158;5.588;2023-04-01T09:36:12;9.73;;;8.55;;
22250;SDS011;59348;52.158;5.588;2023-04-01T09:38:49;10.02;;;9.00;;
22250;SDS011;59348;52.158;5.588;2023-04-01T09:41:25;11.57;;;9.15;;
22250;SDS011;59348;52.158;5.588;2023-04-01T09:43:57;11.55;;;9.55;;
22250;SDS011;59348;52.158;5.588;2023-04-01T09:46:31;12.10;;;9.73;;
22250;SDS011;59348;52.158;5.588;2023-04-01T09:51:46;10.60;;;9.25;;
22250;SDS011;59348;52.158;5.588;2023-04-01T09:54:23;9.95;;;8.80;;
22250;SDS011;59348;52.158;5.588;2023-04-01T09:59:41;9.80;;;8.77;;
22250;SDS011;59348;52.158;5.588;2023-04-01T10:02:20;11.95;;;8.77;;
22250;SDS011;59348;52.158;5.588;2023-04-01T10:07:46;11.57;;;8.63;;
22250;SDS011;59348;52.158;5.588;2023-04-01T10:10:25;8.25;;;7.45;;
22250;SDS011;59348;52.158;5.588;2023-04-01T10:15:43;6.70;;;5.97;;
22250;SDS011;59348;52.158;5.588;2023-04-01T10:18:18;6.30;;;5.70;;
22250;SDS011;59348;52.158;5.588;2023-04-01T10:20:57;10.30;;;6.05;;
22250;SDS011;59348;52.158;5.588;2023-04-01T10:23:30;5.20;;;4.65;;
22250;SDS011;59348;52.158;5.588;2023-04-01T10:26:09;5.15;;;4.65;;
22250;SDS011;59348;52.158;5.588;2023-04-01T10:28:52;5.47;;;4.97;;
22250;SDS011;59348;52.158;5.588;2023-04-01T10:31:31;5.95;;;5.03;;
22250;SDS011;59348;52.158;5.588;2023-04-01T10:34:09;6.32;;;5.50;;
22250;SDS011;59348;52.158;5.588;2023-04-01T10:36:48;6.00;;;5.15;;
22250;SDS011;59348;52.158;5.588;2023-04-01T10:42:07;6.63;;;5.93;;
22250;SDS011;59348;52.158;5.588;2023-04-01T10:44:44;6.28;;;5.68;;
22250;SDS011;59348;52.158;5.588;2023-04-01T10:50:07;7.20;;;5.75;;
22250;SDS011;59348;52.158;5.588;2023-04-01T10:52:44;7.63;;;6.25;;
22250;SDS011;59348;52.158;5.588;2023-04-01T10:55:24;8.02;;;6.43;;
22250;SDS011;59348;52.158;5.588;2023-04-01T10:58:03;7.57;;;6.43;;
22250;SDS011;59348;52.158;5.588;2023-04-01T11:00:45;9.55;;;6.43;;
22250;SDS011;59348;52.158;5.588;2023-04-01T11:03:26;7.00;;;5.85;;
22250;SDS011;59348;52.158;5.588;2023-04-01T11:06:07;4.22;;;3.80;;
22250;SDS011;59348;52.158;5.588;2023-04-01T11:08:48;4.20;;;3.80;;
22250;SDS011;59348;52.158;5.588;2023-04-01T11:14:11;4.57;;;4.15;;
22250;SDS011;59348;52.158;5.588;2023-04-01T11:16:52;4.25;;;3.85;;
22250;SDS011;59348;52.158;5.588;2023-04-01T11:19:32;4.25;;;3.58;;
22250;SDS011;59348;52.158;5.588;2023-04-01T11:22:12;4.53;;;3.92;;
22250;SDS011;59348;52.158;5.588;2023-04-01T11:24:46;4.32;;;3.55;;
22250;SDS011;59348;52.158;5.588;2023-04-01T11:27:23;4.00;;;3.60;;
22250;SDS011;59348;52.158;5.588;2023-04-01T11:32:39;4.88;;;4.43;;
22250;SDS011;59348;52.158;5.588;2023-04-01T11:35:22;4.75;;;4.30;;
22250;SDS011;59348;52.158;5.588;2023-04-01T11:37:54;4.40;;;4.00;;
22250;SDS011;59348;52.158;5.588;2023-04-01T11:40:27;4.97;;;4.35;;
22250;SDS011;59348;52.158;5.588;2023-04-01T11:43:00;4.72;;;4.25;;
22250;SDS011;59348;52.158;5.588;2023-04-01T11:45:32;5.75;;;4.85;;
22250;SDS011;59348;52.158;5.588;2023-04-01T11:48:07;5.15;;;4.65;;
22250;SDS011;59348;52.158;5.588;2023-04-01T11:50:39;5.47;;;4.97;;
22250;SDS011;59348;52.158;5.588;2023-04-01T11:53:13;5.63;;;5.13;;
22250;SDS011;59348;52.158;5.588;2023-04-01T11:55:46;6.32;;;5.32;;
22250;SDS011;59348;52.158;5.588;2023-04-01T11:58:19;6.50;;;5.55;;
22250;SDS011;59348;52.158;5.588;2023-04-01T12:00:55;5.63;;;4.93;;
22250;SDS011;59348;52.158;5.588;2023-04-01T12:03:35;5.82;;;5.13;;
22250;SDS011;59348;52.158;5.588;2023-04-01T12:06:05;7.30;;;4.95;;
22250;SDS011;59348;52.158;5.588;2023-04-01T12:08:37;8.15;;;5.82;;
22250;SDS011;59348;52.158;5.588;2023-04-01T12:11:12;7.15;;;5.95;;
22250;SDS011;59348;52.158;5.588;2023-04-01T12:13:45;7.80;;;6.28;;
22250;SDS011;59348;52.158;5.588;2023-04-01T12:16:20;8.95;;;6.00;;
22250;SDS011;59348;52.158;5.588;2023-04-01T12:18:50;6.63;;;6.03;;
22250;SDS011;59348;52.158;5.588;2023-04-01T12:21:22;6.03;;;5.45;;
22250;SDS011;59348;52.158;5.588;2023-04-01T12:23:56;6.75;;;5.60;;
22250;SDS011;59348;52.158;5.588;2023-04-01T12:26:31;6.50;;;5.30;;
22250;SDS011;59348;52.158;5.588;2023-04-01T12:29:09;7.53;;;5.40;;
22250;SDS011;59348;52.158;5.588;2023-04-01T12:31:42;7.10;;;5.47;;
22250;SDS011;59348;52.158;5.588;2023-04-01T12:37:01;6.25;;;5.63;;
22250;SDS011;59348;52.158;5.588;2023-04-01T12:39:44;7.13;;;5.93;;
22250;SDS011;59348;52.158;5.588;2023-04-01T12:42:17;7.82;;;6.07;;
22250;SDS011;59348;52.158;5.588;2023-04-01T12:44:51;8.93;;;6.80;;
22250;SDS011;59348;52.158;5.588;2023-04-01T12:47:25;7.55;;;6.38;;
22250;SDS011;59348;52.158;5.588;2023-04-01T12:52:42;7.65;;;5.68;;
22250;SDS011;59348;52.158;5.588;2023-04-01T12:55:18;6.57;;;5.88;;
22250;SDS011;59348;52.158;5.588;2023-04-01T12:57:56;7.85;;;6.35;;
22250;SDS011;59348;52.158;5.588;2023-04-01T13:00:27;7.75;;;6.30;;
22250;SDS011;59348;52.158;5.588;2023-04-01T13:03:02;7.35;;;6.13;;
22250;SDS011;59348;52.158;5.588;2023-04-01T13:05:37;9.55;;;6.57;;
22250;SDS011;59348;52.158;5.588;2023-04-01T13:08:16;8.45;;;6.80;;
22250;SDS011;59348;52.158;5.588;2023-04-01T13:10:51;7.10;;;5.60;;
22250;SDS011;59348;52.158;5.588;2023-04-01T13:13:27;7.95;;;6.90;;
22250;SDS011;59348;52.158;5.588;2023-04-01T13:15:56;8.45;;;6.28;;
22250;SDS011;59348;52.158;5.588;2023-04-01T13:18:28;7.28;;;6.32;;
22250;SDS011;59348;52.158;5.588;2023-04-01T13:20:59;6.82;;;6.10;;
22250;SDS011;59348;52.158;5.588;2023-04-01T13:23:33;7.68;;;5.70;;
22250;SDS011;59348;52.158;5.588;2023-04-01T13:26:03;6.43;;;5.63;;
22250;SDS011;59348;52.158;5.588;2023-04-01T13:28:34;7.05;;;5.90;;
22250;SDS011;59348;52.158;5.588;2023-04-01T13:31:04;6.22;;;5.63;;
22250;SDS011;59348;52.158;5.588;2023-04-01T13:33:34;7.60;;;6.20;;
22250;SDS011;59348;52.158;5.588;2023-04-01T13:36:08;7.38;;;6.20;;
22250;SDS011;59348;52.158;5.588;2023-04-01T13:38:44;7.55;;;6.57;;
22250;SDS011;59348;52.158;5.588;2023-04-01T13:41:18;9.07;;;6.90;;
22250;SDS011;59348;52.158;5.588;2023-04-01T13:43:49;9.77;;;7.50;;
22250;SDS011;59348;52.158;5.588;2023-04-01T13:46:23;8.88;;;7.10;;
22250;SDS011;59348;52.158;5.588;2023-04-01T13:49:00;8.75;;;6.57;;
22250;SDS011;59348;52.158;5.588;2023-04-01T13:51:39;9.00;;;6.43;;
22250;SDS011;59348;52.158;5.588;2023-04-01T13:56:59;7.70;;;6.65;;
22250;SDS011;59348;52.158;5.588;2023-04-01T13:59:32;8.90;;;6.35;;
22250;SDS011;59348;52.158;5.588;2023-04-01T14:02:08;8.88;;;6.43;;
22250;SDS011;59348;52.158;5.588;2023-04-01T14:04:47;8.07;;;6.65;;
22250;SDS011;59348;52.158;5.588;2023-04-01T14:07:19;6.93;;;5.50;;
22250;SDS011;59348;52.158;5.588;2023-04-01T14:09:58;7.35;;;6.00;;
22250;SDS011;59348;52.158;5.588;2023-04-01T14:12:31;6.53;;;5.70;;
22250;SDS011;59348;52.158;5.588;2023-04-01T14:15:07;7.78;;;6.72;;
22250;SDS011;59348;52.158;5.588;2023-04-01T14:17:40;8.32;;;6.80;;
22250;SDS011;59348;52.158;5.588;2023-04-01T14:20:17;8.40;;;7.00;;
22250;SDS011;59348;52.158;5.588;2023-04-01T14:22:51;7.43;;;6.63;;
22250;SDS011;59348;52.158;5.588;2023-04-01T14:25:26;8.60;;;6.95;;
22250;SDS011;59348;52.158;5.588;2023-04-01T14:27:58;7.40;;;6.63;;
22250;SDS011;59348;52.158;5.588;2023-04-01T14:30:29;9.18;;;7.03;;
22250;SDS011;59348;52.158;5.588;2023-04-01T14:33:02;6.90;;;6.20;;
22250;SDS011;59348;52.158;5.588;2023-04-01T14:35:35;11.05;;;6.85;;
22250;SDS011;59348;52.158;5.588;2023-04-01T14:38:06;7.35;;;6.65;;
22250;SDS011;59348;52.158;5.588;2023-04-01T14:40:44;7.45;;;6.65;;
22250;SDS011;59348;52.158;5.588;2023-04-01T14:43:16;6.82;;;6.03;;
22250;SDS011;59348;52.158;5.588;2023-04-01T14:48:30;6.95;;;6.05;;
22250;SDS011;59348;52.158;5.588;2023-04-01T14:51:03;6.80;;;6.03;;
22250;SDS011;59348;52.158;5.588;2023-04-01T14:53:31;7.07;;;6.15;;
22250;SDS011;59348;52.158;5.588;2023-04-01T14:56:01;7.00;;;6.28;;
22250;SDS011;59348;52.158;5.588;2023-04-01T14:58:40;6.85;;;6.25;;
22250;SDS011;59348;52.158;5.588;2023-04-01T15:01:11;7.05;;;6.35;;
22250;SDS011;59348;52.158;5.588;2023-04-01T15:03:45;6.70;;;6.00;;
22250;SDS011;59348;52.158;5.588;2023-04-01T15:06:24;7.25;;;6.55;;
22250;SDS011;59348;52.158;5.588;2023-04-01T15:08:55;6.13;;;5.53;;
22250;SDS011;59348;52.158;5.588;2023-04-01T15:11:31;6.88;;;6.18;;
22250;SDS011;59348;52.158;5.588;2023-04-01T15:14:06;6.63;;;5.93;;
22250;SDS011;59348;52.158;5.588;2023-04-01T15:16:39;6.20;;;5.60;;
22250;SDS011;59348;52.158;5.588;2023-04-01T15:19:12;5.88;;;5.38;;
22250;SDS011;59348;52.158;5.588;2023-04-01T15:21:44;6.10;;;5.50;;
22250;SDS011;59348;52.158;5.588;2023-04-01T15:24:15;5.75;;;5.22;;
22250;SDS011;59348;52.158;5.588;2023-04-01T15:26:50;6.22;;;5.63;;
22250;SDS011;59348;52.158;5.588;2023-04-01T15:29:27;6.95;;;5.38;;
22250;SDS011;59348;52.158;5.588;2023-04-01T15:31:58;5.85;;;5.00;;
22250;SDS011;59348;52.158;5.588;2023-04-01T15:34:30;6.15;;;5.55;;
22250;SDS011;59348;52.158;5.588;2023-04-01T15:37:00;5.35;;;4.80;;
22250;SDS011;59348;52.158;5.588;2023-04-01T15:39:35;6.53;;;4.43;;
22250;SDS011;59348;52.158;5.588;2023-04-01T15:42:16;4.72;;;4.32;;
22250;SDS011;59348;52.158;5.588;2023-04-01T15:44:52;5.47;;;4.97;;
22250;SDS011;59348;52.158;5.588;2023-04-01T15:47:32;5.60;;;4.90;;
22250;SDS011;59348;52.158;5.588;2023-04-01T15:50:06;5.13;;;4.35;;
22250;SDS011;59348;52.158;5.588;2023-04-01T15:52:39;5.75;;;5.10;;